createdAt,value
2023-04-11T00:00:58.072Z,100155.13
2023-04-11T00:02:00.055Z,100154.64
2023-04-11T00:03:02.370Z,100155.13
2023-04-11T00:04:04.850Z,100154.36
2023-04-11T00:05:07.802Z,100156.38
2023-04-11T00:06:10.901Z,100152.05
2023-04-11T00:07:12.791Z,100151.28
2023-04-11T00:08:14.844Z,100153.31
2023-04-11T00:09:16.823Z,100146.67
2023-04-11T00:10:19.367Z,100151.97
2023-04-11T00:11:21.324Z,100150.42
2023-04-11T00:12:23.258Z,100154.50
2023-04-11T00:13:25.185Z,100144.30
2023-04-11T00:14:28.691Z,100146.80
2023-04-11T00:15:30.673Z,100148.05
2023-04-11T00:16:32.913Z,100147.77
2023-04-11T00:17:34.923Z,100152.58
2023-04-11T00:18:36.906Z,100148.25
2023-04-11T00:19:39.453Z,100151.05
2023-04-11T00:20:41.360Z,100156.63
2023-04-11T00:21:43.248Z,100141.13
2023-04-11T00:22:45.119Z,100150.75
2023-04-11T00:23:47.231Z,100143.92
2023-04-11T00:24:49.565Z,100149.50
2023-04-11T00:25:51.512Z,100152.29
2023-04-11T00:26:53.589Z,100150.27
2023-04-11T00:27:55.536Z,100148.25
2023-04-11T00:28:57.566Z,100144.69
2023-04-11T00:29:59.549Z,100136.31
2023-04-11T00:31:01.480Z,100143.92
2023-04-11T00:32:03.635Z,100141.90
2023-04-11T00:33:06.103Z,100142.38
2023-04-11T00:34:08.117Z,100140.84
2023-04-11T00:35:09.903Z,100140.84
2023-04-11T00:36:13.587Z,100147.19
2023-04-11T00:37:15.854Z,100141.61
2023-04-11T00:38:18.816Z,100143.16
2023-04-11T00:39:21.723Z,100132.47
2023-04-11T00:40:24.313Z,100133.72
2023-04-11T00:41:27.127Z,100136.52
2023-04-11T00:42:29.098Z,100133.44
2023-04-11T00:43:31.069Z,100140.27
2023-04-11T00:44:34.482Z,100135.94
2023-04-11T00:45:36.507Z,100136.45
2023-04-11T00:46:43.626Z,100136.45
2023-04-11T00:47:46.142Z,100134.91
2023-04-11T00:48:48.387Z,100128.56
2023-04-11T00:49:50.251Z,100136.16
2023-04-11T00:50:52.290Z,100129.52
2023-04-11T00:51:54.224Z,100133.56
2023-04-11T00:52:56.257Z,100128.95
2023-04-11T00:53:58.202Z,100137.03
2023-04-11T00:55:02.833Z,100132.70
2023-04-11T00:56:05.586Z,100134.72
2023-04-11T00:57:07.890Z,100143.09
2023-04-11T00:58:09.846Z,100142.32
2023-04-11T00:59:11.865Z,100135.20
2023-04-11T01:00:14.487Z,100141.55
2023-04-11T01:01:16.428Z,100137.99
2023-04-11T01:02:18.637Z,100149.15
2023-04-11T01:03:21.406Z,100144.82
2023-04-11T01:04:24.120Z,100141.27
2023-04-11T01:05:26.042Z,100148.86
2023-04-11T01:06:28.356Z,100148.09
2023-04-11T01:07:31.342Z,100149.34
2023-04-11T01:08:34.384Z,100140.97
2023-04-11T01:09:36.285Z,100142.98
2023-04-11T01:10:40.816Z,100140.71
2023-04-11T01:11:42.683Z,100139.94
2023-04-11T01:12:44.658Z,100143.98
2023-04-11T01:13:46.556Z,100149.56
2023-04-11T01:14:48.955Z,100146.00
2023-04-11T01:15:52.515Z,100150.33
2023-04-11T01:16:54.763Z,100141.96
2023-04-11T01:17:56.760Z,100140.42
2023-04-11T01:18:58.750Z,100139.17
2023-04-11T01:20:00.609Z,100141.64
2023-04-11T01:21:02.986Z,100139.33
2023-04-11T01:22:04.947Z,100141.83
2023-04-11T01:23:07.189Z,100146.64
2023-04-11T01:24:09.092Z,100141.55
2023-04-11T01:25:10.876Z,100146.64
2023-04-11T01:26:14.003Z,100143.08
2023-04-11T01:27:16.326Z,100138.75
2023-04-11T01:28:18.739Z,100143.08
2023-04-11T01:29:21.177Z,100134.42
2023-04-11T01:30:24.010Z,100134.91
2023-04-11T01:31:25.962Z,100138.17
2023-04-11T01:32:28.156Z,100131.53
2023-04-11T01:33:30.159Z,100133.27
2023-04-11T01:34:32.220Z,100128.20
2023-04-11T01:35:34.824Z,100128.67
2023-04-11T01:36:36.840Z,100125.89
2023-04-11T01:37:38.607Z,100131.17
2023-04-11T01:38:40.481Z,100133.67
2023-04-11T01:39:42.475Z,100135.69
2023-04-11T01:40:44.902Z,100138.95
2023-04-11T01:41:47.219Z,100129.82
2023-04-11T01:42:50.470Z,100132.61
2023-04-11T01:43:54.383Z,100130.59
2023-04-11T01:44:56.336Z,100136.94
2023-04-11T01:45:58.354Z,100132.13
2023-04-11T01:47:00.412Z,100134.92
2023-04-11T01:48:06.479Z,100122.23
2023-04-11T01:49:08.513Z,100125.49
2023-04-11T01:50:11.013Z,100116.84
2023-04-11T01:51:13.180Z,100131.26
2023-04-11T01:52:16.095Z,100126.93
2023-04-11T01:53:18.333Z,100118.27
2023-04-11T01:54:20.268Z,100125.09
2023-04-11T01:55:22.042Z,100116.44
2023-04-11T01:56:23.998Z,100116.95
2023-04-11T01:57:26.042Z,100117.43
2023-04-11T01:58:28.241Z,100112.33
2023-04-11T01:59:30.092Z,100111.56
2023-04-11T02:00:32.636Z,100113.10
2023-04-11T02:01:34.801Z,100111.09
2023-04-11T02:02:37.579Z,100105.51
2023-04-11T02:03:40.248Z,100110.31
2023-04-11T02:04:42.435Z,100101.95
2023-04-11T02:05:44.434Z,100111.09
2023-04-11T02:06:46.464Z,100110.31
2023-04-11T02:07:48.883Z,100111.09
2023-04-11T02:08:53.236Z,100108.77
2023-04-11T02:09:56.868Z,100111.56
2023-04-11T02:11:00.618Z,100105.22
2023-04-11T02:12:02.856Z,100113.58
2023-04-11T02:13:04.694Z,100101.19
2023-04-11T02:14:07.889Z,100107.23
2023-04-11T02:15:10.081Z,100112.33
2023-04-11T02:16:12.723Z,100110.80
2023-04-11T02:17:14.890Z,100108.00
2023-04-11T02:18:16.843Z,100107.23
2023-04-11T02:19:18.789Z,100095.31
2023-04-11T02:20:21.083Z,100099.35
2023-04-11T02:21:23.008Z,100101.37
2023-04-11T02:22:25.430Z,100104.92
2023-04-11T02:23:27.850Z,100102.14
2023-04-11T02:24:29.792Z,100095.80
2023-04-11T02:25:32.223Z,100099.06
2023-04-11T02:26:35.618Z,100100.31
2023-04-11T02:27:37.516Z,100086.38
2023-04-11T02:28:39.431Z,100089.64
2023-04-11T02:29:41.824Z,100098.77
2023-04-11T02:30:43.799Z,100102.80
2023-04-11T02:31:49.610Z,100094.44
2023-04-11T02:32:53.163Z,100095.69
2023-04-11T02:33:55.502Z,100101.27
2023-04-11T02:34:57.256Z,100095.69
2023-04-11T02:35:59.602Z,100102.51
2023-04-11T02:37:02.910Z,100100.20
2023-04-11T02:38:04.770Z,100095.11
2023-04-11T02:39:07.283Z,100092.05
2023-04-11T02:40:10.810Z,100094.34
2023-04-11T02:41:13.580Z,100096.35
2023-04-11T02:42:16.002Z,100091.55
2023-04-11T02:43:18.253Z,100094.07
2023-04-11T02:44:20.222Z,100096.86
2023-04-11T02:45:22.238Z,100089.75
2023-04-11T02:46:24.231Z,100094.55
2023-04-11T02:47:26.734Z,100095.03
2023-04-11T02:48:30.525Z,100089.45
2023-04-11T02:49:32.464Z,100091.95
2023-04-11T02:50:34.736Z,100089.64
2023-04-11T02:51:36.748Z,100084.06
2023-04-11T02:52:38.805Z,100085.31
2023-04-11T02:53:40.664Z,100084.55
2023-04-11T02:54:43.362Z,100083.77
2023-04-11T02:55:45.394Z,100087.33
2023-04-11T02:56:47.735Z,100087.80
2023-04-11T02:57:49.765Z,100084.55
2023-04-11T02:58:52.557Z,100083.00
2023-04-11T02:59:56.532Z,100081.76
2023-04-11T03:01:00.541Z,100087.80
2023-04-11T03:02:02.796Z,100080.22
2023-04-11T03:03:05.185Z,100084.55
2023-04-11T03:04:09.632Z,100084.55
2023-04-11T03:05:15.288Z,100082.52
2023-04-11T03:06:17.910Z,100090.12
2023-04-11T03:07:20.816Z,100077.43
2023-04-11T03:08:23.027Z,100086.56
2023-04-11T03:09:27.244Z,100083.77
2023-04-11T03:10:29.722Z,100085.79
2023-04-11T03:11:32.324Z,100080.22
2023-04-11T03:12:34.820Z,100085.79
2023-04-11T03:13:38.682Z,100083.00
2023-04-11T03:14:41.107Z,100083.48
2023-04-11T03:15:43.102Z,100082.42
2023-04-11T03:16:46.255Z,100082.42
2023-04-11T03:17:48.524Z,100087.98
2023-04-11T03:18:50.531Z,100083.66
2023-04-11T03:19:53.612Z,100082.13
2023-04-11T03:20:55.859Z,100077.33
2023-04-11T03:21:57.901Z,100085.69
2023-04-11T03:23:00.421Z,100083.66
2023-04-11T03:24:02.353Z,100087.70
2023-04-11T03:25:05.500Z,100089.72
2023-04-11T03:26:08.034Z,100083.38
2023-04-11T03:27:09.971Z,100079.81
2023-04-11T03:28:12.931Z,100085.39
2023-04-11T03:29:14.765Z,100084.62
2023-04-11T03:30:19.392Z,100085.86
2023-04-11T03:31:23.021Z,100091.44
2023-04-11T03:32:25.926Z,100078.78
2023-04-11T03:33:28.550Z,100085.13
2023-04-11T03:34:30.566Z,100089.16
2023-04-11T03:35:33.304Z,100087.62
2023-04-11T03:36:35.496Z,100087.62
2023-04-11T03:37:39.234Z,100081.27
2023-04-11T03:38:41.204Z,100087.62
2023-04-11T03:39:43.635Z,100095.97
2023-04-11T03:40:46.671Z,100080.50
2023-04-11T03:41:50.950Z,100088.39
2023-04-11T03:42:53.532Z,100092.71
2023-04-11T03:43:57.397Z,100095.50
2023-04-11T03:44:59.730Z,100088.39
2023-04-11T03:46:01.693Z,100083.59
2023-04-11T03:47:06.068Z,100084.06
2023-04-11T03:48:12.607Z,100089.92
2023-04-11T03:49:22.487Z,100087.14
2023-04-11T03:50:26.445Z,100091.17
2023-04-11T03:51:30.711Z,100089.92
2023-04-11T03:52:37.262Z,100087.14
2023-04-11T03:53:41.139Z,100096.27
2023-04-11T03:54:47.585Z,100097.78
2023-04-11T03:55:49.816Z,100093.48
2023-04-11T03:56:52.624Z,100099.80
2023-04-11T03:57:56.977Z,100094.99
2023-04-11T03:59:00.003Z,100097.01
2023-04-11T04:00:04.580Z,100091.44
2023-04-11T04:01:08.543Z,100097.78
2023-04-11T04:02:10.555Z,100097.78
2023-04-11T04:03:14.598Z,100096.27
2023-04-11T04:04:17.216Z,100090.95
2023-04-11T04:05:21.927Z,100093.75
2023-04-11T04:06:24.452Z,100097.78
2023-04-11T04:07:26.972Z,100090.70
2023-04-11T04:08:31.349Z,100087.91
2023-04-11T04:09:33.298Z,100094.73
2023-04-11T04:10:35.640Z,100092.71
2023-04-11T04:11:38.009Z,100082.81
2023-04-11T04:12:40.265Z,100084.83
2023-04-11T04:13:46.735Z,100083.59
2023-04-11T04:14:51.691Z,100091.94
2023-04-11T04:15:53.668Z,100086.08
2023-04-11T04:16:58.080Z,100088.09
2023-04-11T04:18:02.141Z,100074.94
2023-04-11T04:19:06.536Z,100081.75
2023-04-11T04:20:09.841Z,100077.72
2023-04-11T04:21:12.355Z,100080.50
2023-04-11T04:22:14.291Z,100075.70
2023-04-11T04:23:18.540Z,100075.23
2023-04-11T04:24:34.209Z,100078.02
2023-04-11T04:25:38.105Z,100083.59
2023-04-11T04:26:40.695Z,100077.24
2023-04-11T04:27:47.409Z,100074.45
2023-04-11T04:28:50.300Z,100072.44
2023-04-11T04:29:56.923Z,100067.64
2023-04-11T04:31:00.868Z,100065.62
2023-04-11T04:32:05.160Z,100067.64
2023-04-11T04:33:10.131Z,100060.79
2023-04-11T04:34:12.230Z,100067.13
2023-04-11T04:35:16.059Z,100066.36
2023-04-11T04:36:18.145Z,100064.34
2023-04-11T04:37:23.404Z,100063.58
2023-04-11T04:38:27.540Z,100056.76
2023-04-11T04:39:31.391Z,100062.33
2023-04-11T04:40:33.571Z,100050.71
2023-04-11T04:41:37.930Z,100055.03
2023-04-11T04:42:40.077Z,100039.09
2023-04-11T04:43:43.486Z,100047.73
2023-04-11T04:44:54.529Z,100042.46
2023-04-11T04:45:57.124Z,100045.53
2023-04-11T04:47:01.220Z,100046.30
2023-04-11T04:48:03.566Z,100041.50
2023-04-11T04:49:06.210Z,100033.91
2023-04-11T04:50:10.660Z,100037.28
2023-04-11T04:51:13.126Z,100043.22
2023-04-11T04:52:15.145Z,100039.38
2023-04-11T04:53:17.297Z,100047.53
2023-04-11T04:54:21.637Z,100051.17
2023-04-11T04:55:23.628Z,100039.05
2023-04-11T04:56:27.056Z,100045.98
2023-04-11T04:57:29.268Z,100035.38
2023-04-11T04:58:31.214Z,100041.22
2023-04-11T04:59:35.203Z,100038.41
2023-04-11T05:00:39.205Z,100033.53
2023-04-11T05:01:42.136Z,100033.20
2023-04-11T05:02:45.331Z,100029.81
2023-04-11T05:03:47.947Z,100032.98
2023-04-11T05:04:53.626Z,100028.52
2023-04-11T05:05:55.792Z,100032.47
2023-04-11T05:06:58.351Z,100022.87
2023-04-11T05:08:00.758Z,100027.26
2023-04-11T05:09:03.829Z,100028.07
2023-04-11T05:10:07.536Z,100031.17
2023-04-11T05:11:11.795Z,100025.37
2023-04-11T05:12:17.472Z,100026.39
2023-04-11T05:13:19.958Z,100030.50
2023-04-11T05:14:23.748Z,100023.34
2023-04-11T05:15:25.687Z,100028.16
2023-04-11T05:16:28.176Z,100027.09
2023-04-11T05:17:31.635Z,100024.02
2023-04-11T05:18:34.094Z,100026.03
2023-04-11T05:19:35.913Z,100022.14
2023-04-11T05:20:38.614Z,100020.80
2023-04-11T05:21:41.506Z,100018.20
2023-04-11T05:22:43.733Z,100016.84
2023-04-11T05:23:46.183Z,100026.47
2023-04-11T05:24:48.267Z,100028.25
2023-04-11T05:25:50.593Z,100030.73
2023-04-11T05:26:52.736Z,100033.23
2023-04-11T05:27:55.062Z,100038.56
2023-04-11T05:28:58.928Z,100039.26
2023-04-11T05:30:02.057Z,100026.44
2023-04-11T05:31:07.153Z,100022.06
2023-04-11T05:32:09.303Z,100024.59
2023-04-11T05:33:11.898Z,100025.36
2023-04-11T05:34:16.409Z,100030.22
2023-04-11T05:35:20.169Z,100022.83
2023-04-11T05:36:24.751Z,100025.16
2023-04-11T05:37:27.261Z,100024.95
2023-04-11T05:38:29.684Z,100019.14
2023-04-11T05:39:32.084Z,100018.69
2023-04-11T05:40:34.519Z,100020.55
2023-04-11T05:41:37.421Z,100013.70
2023-04-11T05:42:39.902Z,100014.25
2023-04-11T05:43:41.816Z,100013.78
2023-04-11T05:44:44.251Z,100015.09
2023-04-11T05:45:46.191Z,100020.27
2023-04-11T05:46:48.430Z,100013.89
2023-04-11T05:47:50.935Z,100019.83
2023-04-11T05:48:52.820Z,100017.55
2023-04-11T05:49:54.592Z,100015.78
2023-04-11T05:50:58.489Z,100014.05
2023-04-11T05:52:00.950Z,100018.91
2023-04-11T05:53:02.906Z,100013.84
2023-04-11T05:54:04.884Z,100013.06
2023-04-11T05:55:07.937Z,100005.16
2023-04-11T05:56:10.931Z,100014.38
2023-04-11T05:57:13.292Z,100008.51
2023-04-11T05:58:15.198Z,100005.20
2023-04-11T05:59:19.849Z,100007.23
2023-04-11T06:00:21.648Z,100011.61
2023-04-11T06:01:23.929Z,99996.81
2023-04-11T06:02:25.942Z,100017.21
2023-04-11T06:03:28.857Z,100002.95
2023-04-11T06:04:30.999Z,100006.52
2023-04-11T06:05:36.420Z,100003.45
2023-04-11T06:06:38.815Z,99995.06
2023-04-11T06:07:40.741Z,100004.23
2023-04-11T06:08:43.816Z,99997.59
2023-04-11T06:09:45.805Z,100004.72
2023-04-11T06:10:47.765Z,100004.97
2023-04-11T06:11:50.088Z,99996.84
2023-04-11T06:12:53.202Z,99999.89
2023-04-11T06:13:55.817Z,100000.88
2023-04-11T06:14:58.810Z,100003.16
2023-04-11T06:16:01.068Z,100001.87
2023-04-11T06:17:03.783Z,100002.14
2023-04-11T06:18:06.189Z,99996.78
2023-04-11T06:19:08.669Z,99994.98
2023-04-11T06:20:11.125Z,99994.73
2023-04-11T06:21:12.958Z,99998.03
2023-04-11T06:22:14.924Z,99998.27
2023-04-11T06:23:17.491Z,99995.98
2023-04-11T06:24:23.139Z,99993.67
2023-04-11T06:25:25.140Z,99999.81
2023-04-11T06:26:27.344Z,99987.08
2023-04-11T06:27:29.853Z,99994.45
2023-04-11T06:28:31.967Z,99996.48
2023-04-11T06:29:34.300Z,99986.55
2023-04-11T06:30:36.262Z,99994.70
2023-04-11T06:31:39.352Z,99998.00
2023-04-11T06:32:41.453Z,99996.97
2023-04-11T06:33:45.727Z,99999.77
2023-04-11T06:34:47.718Z,99991.88
2023-04-11T06:35:49.726Z,99986.27
2023-04-11T06:36:52.786Z,99992.11
2023-04-11T06:37:54.866Z,99993.37
2023-04-11T06:38:56.755Z,99993.91
2023-04-11T06:39:59.740Z,99995.41
2023-04-11T06:41:02.276Z,99984.73
2023-04-11T06:42:04.236Z,99986.78
2023-04-11T06:43:07.965Z,99995.41
2023-04-11T06:44:10.750Z,99989.58
2023-04-11T06:45:14.367Z,99980.41
2023-04-11T06:46:17.659Z,99984.73
2023-04-11T06:47:20.734Z,99986.27
2023-04-11T06:48:22.614Z,99994.67
2023-04-11T06:49:26.609Z,99986.27
2023-04-11T06:50:29.612Z,99982.94
2023-04-11T06:51:31.488Z,99993.37
2023-04-11T06:52:33.565Z,99986.51
2023-04-11T06:53:37.265Z,99990.84
2023-04-11T06:54:42.328Z,99991.61
2023-04-11T06:55:50.340Z,99989.57
2023-04-11T06:56:52.310Z,99988.30
2023-04-11T06:58:03.484Z,99992.38
2023-04-11T06:59:05.369Z,99988.04
2023-04-11T07:00:08.649Z,99978.37
2023-04-11T07:01:10.579Z,99983.97
2023-04-11T07:02:16.429Z,99984.73
2023-04-11T07:03:19.602Z,99982.20
2023-04-11T07:04:23.856Z,99976.59
2023-04-11T07:05:26.751Z,99983.22
2023-04-11T07:06:29.623Z,99976.35
2023-04-11T07:07:34.805Z,99975.08
2023-04-11T07:08:38.640Z,99973.31
2023-04-11T07:09:42.902Z,99974.84
2023-04-11T07:10:46.077Z,99970.77
2023-04-11T07:11:48.051Z,99973.83
2023-04-11T07:12:50.013Z,99962.12
2023-04-11T07:15:10.026Z,99967.98
2023-04-11T07:16:12.178Z,99966.18
2023-04-11T07:17:20.883Z,99964.14
2023-04-11T07:18:23.355Z,99959.56
2023-04-11T07:19:25.310Z,99959.06
2023-04-11T07:20:29.158Z,99955.75
2023-04-11T07:21:31.721Z,99955.25
2023-04-11T07:22:39.913Z,99951.94
2023-04-11T07:23:42.390Z,99953.47
2023-04-11T07:24:44.475Z,99956.02
2023-04-11T07:25:50.967Z,99946.58
2023-04-11T07:26:56.941Z,99961.63
2023-04-11T07:28:01.734Z,99962.67
2023-04-11T07:29:10.957Z,99952.97
2023-04-11T07:30:16.010Z,99949.88
2023-04-11T07:31:19.050Z,99951.62
2023-04-11T07:32:26.906Z,99954.87
2023-04-11T07:33:28.922Z,99953.29
2023-04-11T07:34:30.835Z,99955.75
2023-04-11T07:35:35.400Z,99949.27
2023-04-11T07:36:40.021Z,99949.67
2023-04-11T07:37:42.008Z,99940.91
2023-04-11T07:38:44.481Z,99939.28
2023-04-11T07:39:46.525Z,99934.55
2023-04-11T07:40:50.172Z,99941.31
2023-04-11T07:41:54.326Z,99922.53
2023-04-11T07:42:56.790Z,99936.71
2023-04-11T07:43:58.757Z,99941.16
2023-04-11T07:45:03.153Z,99937.19
2023-04-11T07:46:05.576Z,99926.56
2023-04-11T07:47:08.187Z,99936.92
2023-04-11T07:48:11.941Z,99932.98
2023-04-11T07:49:14.448Z,99924.91
2023-04-11T07:50:17.278Z,99933.29
2023-04-11T07:51:23.868Z,99934.75
2023-04-11T07:52:25.877Z,99927.19
2023-04-11T07:54:43.758Z,99918.13
2023-04-11T07:55:46.080Z,99924.84
2023-04-11T07:56:48.547Z,99914.23
2023-04-11T07:57:50.943Z,99923.58
2023-04-11T07:58:52.877Z,99917.33
2023-04-11T07:59:54.718Z,99919.53
2023-04-11T08:00:58.203Z,99919.42
2023-04-11T08:02:02.263Z,99912.39
2023-04-11T08:03:05.366Z,99909.48
2023-04-11T08:04:08.065Z,99930.41
2023-04-11T08:05:10.487Z,99909.59
2023-04-11T08:06:13.249Z,99909.81
2023-04-11T08:07:15.188Z,99909.27
2023-04-11T08:08:18.038Z,99907.98
2023-04-11T08:09:20.040Z,99918.73
2023-04-11T08:10:22.989Z,99909.72
2023-04-11T08:11:25.611Z,99898.97
2023-04-11T08:12:28.105Z,99898.97
2023-04-11T08:13:30.675Z,99904.39
2023-04-11T08:14:32.493Z,99894.94
2023-04-11T08:15:34.434Z,99903.94
2023-04-11T08:16:36.477Z,99902.73
2023-04-11T08:17:38.693Z,99899.27
2023-04-11T08:18:41.129Z,99894.48
2023-04-11T08:19:43.343Z,99898.91
2023-04-11T08:20:45.940Z,99898.48
2023-04-11T08:21:48.205Z,99897.27
2023-04-11T08:22:50.623Z,99898.88
2023-04-11T08:23:52.567Z,99894.84
2023-04-11T08:24:54.367Z,99897.21
2023-04-11T08:25:56.209Z,99890.39
2023-04-11T08:26:58.233Z,99895.57
2023-04-11T08:28:00.657Z,99895.12
2023-04-11T08:29:02.553Z,99881.83
2023-04-11T08:30:06.172Z,99887.05
2023-04-11T08:31:08.178Z,99888.11
2023-04-11T08:32:10.130Z,99890.47
2023-04-11T08:33:11.888Z,99887.19
2023-04-11T08:34:14.244Z,99886.73
2023-04-11T08:35:16.704Z,99893.23
2023-04-11T08:36:19.096Z,99884.32
2023-04-11T08:37:21.030Z,99880.28
2023-04-11T08:38:23.075Z,99867.03
2023-04-11T08:39:25.606Z,99877.86
2023-04-11T08:40:27.677Z,99872.00
2023-04-11T08:41:29.557Z,99868.19
2023-04-11T08:42:32.122Z,99878.47
2023-04-11T08:43:35.804Z,99866.96
2023-04-11T08:44:40.709Z,99864.67
2023-04-11T08:45:59.900Z,99859.05
2023-04-11T08:47:05.572Z,99854.17
2023-04-11T08:48:08.297Z,99862.09
2023-04-11T08:49:24.693Z,99851.59
2023-04-11T08:50:27.377Z,99865.91
2023-04-11T08:51:29.310Z,99854.10
2023-04-11T08:52:32.793Z,99856.39
2023-04-11T08:53:35.991Z,99850.75
2023-04-11T08:54:39.033Z,99853.80
2023-04-11T08:55:47.697Z,99850.45
2023-04-11T08:56:49.812Z,99856.09
2023-04-11T08:57:53.677Z,99854.77
2023-04-11T08:58:55.616Z,99846.31
2023-04-11T09:00:02.941Z,99846.31
2023-04-11T09:02:34.569Z,99840.00
2023-04-11T09:03:50.840Z,99850.35
2023-04-11T09:04:59.892Z,99842.13
2023-04-11T09:06:06.320Z,99829.79
2023-04-11T09:07:10.443Z,99833.59
2023-04-11T09:08:16.141Z,99833.30
2023-04-11T09:09:29.035Z,99838.59
2023-04-11T09:10:31.591Z,99834.71
2023-04-11T09:11:53.085Z,99831.05
2023-04-11T09:12:55.341Z,99833.56
2023-04-11T09:14:11.779Z,99837.38
2023-04-11T09:15:26.302Z,99823.50
2023-04-11T09:16:29.108Z,99821.64
2023-04-11T09:17:42.089Z,99812.91
2023-04-11T09:18:45.951Z,99813.13
2023-04-11T09:19:49.318Z,99826.91
2023-04-11T09:21:00.767Z,99820.73
2023-04-11T09:22:03.477Z,99811.75
2023-04-11T09:23:05.464Z,99817.07
2023-04-11T09:24:14.769Z,99815.23
2023-04-11T09:25:19.573Z,99817.72
2023-04-11T09:26:26.064Z,99799.72
2023-04-11T09:27:28.113Z,99809.92
2023-04-11T09:28:46.115Z,99802.45
2023-04-11T09:29:48.225Z,99810.37
2023-04-11T09:30:59.118Z,99802.89
2023-04-11T09:32:02.441Z,99795.95
2023-04-11T09:33:27.013Z,99800.48
2023-04-11T09:34:29.359Z,99823.06
2023-04-11T09:35:32.257Z,99809.52
2023-04-11T09:36:34.324Z,99795.95
2023-04-11T09:37:56.141Z,99794.44
2023-04-11T09:40:26.665Z,99784.77
2023-04-11T09:41:34.885Z,99787.27
2023-04-11T09:42:39.527Z,99787.27
2023-04-11T09:43:50.062Z,99787.27
2023-04-11T09:44:53.502Z,99790.85
2023-04-11T09:47:34.782Z,99780.11
2023-04-11T09:48:46.539Z,99772.09
2023-04-11T09:49:43.179Z,99788.48
2023-04-11T09:50:45.311Z,99782.84
2023-04-11T09:51:48.136Z,99777.92
2023-04-11T09:52:50.108Z,99785.66
2023-04-11T09:53:55.447Z,99774.16
2023-04-11T09:54:59.004Z,99771.33
2023-04-11T09:56:06.973Z,99778.27
2023-04-11T09:57:08.925Z,99773.17
2023-04-11T09:58:10.851Z,99777.06
2023-04-11T09:59:14.317Z,99788.13
2023-04-11T10:00:26.901Z,99789.73
2023-04-11T10:01:31.874Z,99773.70
2023-04-11T10:02:34.004Z,99776.30
2023-04-11T10:03:40.123Z,99785.30
2023-04-11T10:05:03.362Z,99764.03
2023-04-11T10:06:17.584Z,99772.27
2023-04-11T10:07:20.974Z,99769.77
2023-04-11T10:08:31.902Z,99749.05
2023-04-11T10:10:47.030Z,99753.30
2023-04-11T10:11:49.492Z,99754.97
2023-04-11T10:12:54.363Z,99756.52
2023-04-11T10:13:58.455Z,99762.16
2023-04-11T10:15:09.231Z,99758.04
2023-04-11T10:16:15.008Z,99758.80
2023-04-11T10:17:23.624Z,99749.05
2023-04-11T10:18:26.701Z,99747.75
2023-04-11T10:19:31.271Z,99752.09
2023-04-11T10:20:46.035Z,99754.91
2023-04-11T10:21:53.322Z,99746.45
2023-04-11T10:23:05.316Z,99747.20
2023-04-11T10:24:17.528Z,99743.63
2023-04-11T10:25:21.247Z,99740.27
2023-04-11T10:26:47.252Z,99751.33
2023-04-11T10:27:56.052Z,99731.91
2023-04-11T10:28:58.792Z,99731.66
2023-04-11T10:30:01.421Z,99722.97
2023-04-11T10:31:09.148Z,99731.43
2023-04-11T10:32:17.861Z,99729.38
2023-04-11T10:33:24.314Z,99724.50
2023-04-11T10:34:26.282Z,99742.17
2023-04-11T10:35:29.420Z,99739.89
2023-04-11T10:37:46.101Z,99715.44
2023-04-11T10:38:49.918Z,99709.22
2023-04-11T10:40:01.335Z,99709.22
2023-04-11T10:42:40.321Z,99707.52
2023-04-11T10:43:45.826Z,99707.16
2023-04-11T10:44:52.258Z,99698.48
2023-04-11T10:46:18.245Z,99694.37
2023-04-11T10:47:21.161Z,99700.77
2023-04-11T10:48:25.559Z,99703.59
2023-04-11T10:49:37.459Z,99697.95
2023-04-11T10:51:53.253Z,99690.13
2023-04-11T10:52:56.605Z,99701.63
2023-04-11T10:54:01.097Z,99705.73
2023-04-11T10:55:17.877Z,99698.36
2023-04-11T10:56:43.013Z,99704.30
2023-04-11T10:58:07.231Z,99696.92
2023-04-11T10:59:37.158Z,99691.86
2023-04-11T11:02:01.739Z,99696.61
2023-04-11T11:03:04.283Z,99691.72
2023-04-11T11:04:07.937Z,99708.41
2023-04-11T11:05:22.423Z,99687.70
2023-04-11T11:06:26.630Z,99688.00
2023-04-11T11:07:31.909Z,99695.70
2023-04-11T11:08:35.955Z,99684.99
2023-04-11T11:09:37.960Z,99693.98
2023-04-11T11:10:50.340Z,99702.74
2023-04-11T11:12:21.123Z,99702.06
2023-04-11T11:13:23.278Z,99695.22
2023-04-11T11:14:29.890Z,99692.28
2023-04-11T11:16:45.098Z,99701.38
2023-04-11T11:17:50.028Z,99701.88
2023-04-11T11:18:55.949Z,99696.02
2023-04-11T11:19:57.959Z,99690.70
2023-04-11T11:21:00.686Z,99691.25
2023-04-11T11:22:15.008Z,99687.45
2023-04-11T11:23:17.041Z,99693.59
2023-04-11T11:24:25.581Z,99684.91
2023-04-11T11:25:27.620Z,99679.81
2023-04-11T11:26:42.621Z,99677.30
2023-04-11T11:27:44.914Z,99684.22
2023-04-11T11:28:47.635Z,99687.58
2023-04-11T11:29:50.766Z,99685.82
2023-04-11T11:32:32.049Z,99671.67
2023-04-11T11:33:34.097Z,99681.59
2023-04-11T11:34:36.067Z,99681.36
2023-04-11T11:35:38.035Z,99672.69
2023-04-11T11:37:54.048Z,99697.61
2023-04-11T11:38:58.064Z,99681.95
2023-04-11T11:40:00.247Z,99671.77
2023-04-11T11:41:02.870Z,99684.11
2023-04-11T11:42:06.154Z,99674.15
2023-04-11T11:43:09.269Z,99675.44
2023-04-11T11:44:26.050Z,99681.06
2023-04-11T11:45:28.058Z,99680.30
2023-04-11T11:46:30.589Z,99671.10
2023-04-11T11:47:41.457Z,99673.69
2023-04-11T11:49:00.623Z,99668.36
2023-04-11T11:50:03.528Z,99666.84
2023-04-11T11:51:06.269Z,99668.66
2023-04-11T11:52:10.609Z,99647.97
2023-04-11T11:53:14.806Z,99663.33
2023-04-11T11:54:16.672Z,99652.84
2023-04-11T11:55:22.456Z,99671.77
2023-04-11T11:56:26.047Z,99655.66
2023-04-11T11:57:28.475Z,99658.80
2023-04-11T11:58:30.938Z,99649.59
2023-04-11T11:59:32.893Z,99648.06
2023-04-11T12:00:36.594Z,99643.20
2023-04-11T12:01:41.137Z,99642.45
2023-04-11T12:02:43.841Z,99653.90
2023-04-11T12:03:47.651Z,99648.27
2023-04-11T12:05:02.292Z,99637.58
2023-04-11T12:06:07.692Z,99639.62
2023-04-11T12:07:10.617Z,99637.88
2023-04-11T12:08:12.736Z,99634.08
2023-04-11T12:09:14.684Z,99634.38
2023-04-11T12:10:17.650Z,99627.98
2023-04-11T12:11:20.105Z,99631.33
2023-04-11T12:12:23.194Z,99634.14
2023-04-11T12:13:25.601Z,99636.19
2023-04-11T12:14:29.191Z,99626.99
2023-04-11T12:15:34.253Z,99639.00
2023-04-11T12:16:37.931Z,99625.47
2023-04-11T12:17:40.693Z,99627.52
2023-04-11T12:18:42.845Z,99623.19
2023-04-11T12:19:44.902Z,99624.48
2023-04-11T12:20:46.960Z,99616.80
2023-04-11T12:21:49.001Z,99616.80
2023-04-11T12:22:53.658Z,99611.18
2023-04-11T12:24:01.082Z,99610.42
2023-04-11T12:26:23.767Z,99612.56
2023-04-11T12:27:26.965Z,99618.33
2023-04-11T12:28:28.937Z,99614.22
2023-04-11T12:29:33.913Z,99615.97
2023-04-11T12:30:36.123Z,99608.53
2023-04-11T12:31:44.553Z,99607.47
2023-04-11T12:32:49.886Z,99603.59
2023-04-11T12:33:52.402Z,99601.77
2023-04-11T12:34:55.299Z,99607.59
2023-04-11T12:35:57.958Z,99600.68
2023-04-11T12:37:04.846Z,99598.86
2023-04-11T12:38:06.827Z,99596.27